Time;durP1;ratioP1;P1;durP2;ratioP2;P2;SDS_P1;SDS_P2;PMS_P1;PMS_P2;Temp;Humidity;BMP_temperature;BMP_pressure;BME280_temperature;BME280_humidity;BME280_pressure;Samples;Min_cycle;Max_cycle;Signal;HPM_P1;HPM_P2
2023/03/16 00:00:42;;;;;;;5.30;1.77;;;5.90;99.90;;;;;;5005536;28;20129;-71
2023/03/16 00:03:09;;;;;;;2.75;1.38;;;6.00;99.90;;;;;;5007451;28;20483;-70
2023/03/16 00:05:35;;;;;;;3.42;1.52;;;6.00;99.90;;;;;;5005536;28;20044;-70
2023/03/16 00:08:01;;;;;;;7.32;1.27;;;6.10;99.90;;;;;;5007177;28;20391;-74
2023/03/16 00:10:27;;;;;;;4.85;2.47;;;6.00;99.90;;;;;;5006980;28;20025;-69
2023/03/16 00:12:54;;;;;;;6.10;1.42;;;6.00;99.90;;;;;;5005639;28;20022;-72
2023/03/16 00:15:20;;;;;;;7.05;2.00;;;6.10;99.90;;;;;;5007332;28;20540;-74
2023/03/16 00:17:48;;;;;;;5.68;2.00;;;6.10;99.90;;;;;;5006692;28;20080;-70
2023/03/16 00:20:16;;;;;;;9.88;2.33;;;6.10;99.90;;;;;;5007367;28;20034;-70
2023/03/16 00:22:42;;;;;;;4.20;1.92;;;6.10;99.90;;;;;;5005283;28;20087;-74
2023/03/16 00:25:09;;;;;;;7.28;1.92;;;6.10;99.90;;;;;;5006313;28;20813;-71
2023/03/16 00:27:35;;;;;;;10.98;2.10;;;6.00;99.90;;;;;;5009040;28;20042;-70
2023/03/16 00:30:02;;;;;;;7.78;1.73;;;6.00;99.90;;;;;;5006560;28;20032;-70
2023/03/16 00:32:33;;;;;;;7.22;1.90;;;6.00;99.90;;;;;;5006867;28;20036;-72
2023/03/16 00:35:00;;;;;;;;;;;6.00;99.90;;;;;;5007247;28;20099;-71
2023/03/16 00:37:31;;;;;;;6.53;2.28;;;6.00;99.90;;;;;;5006932;28;19913;-71
2023/03/16 00:39:57;;;;;;;5.63;1.55;;;6.00;99.90;;;;;;5006543;28;20053;-73
2023/03/16 00:42:26;;;;;;;6.03;1.75;;;6.00;99.90;;;;;;5006869;28;20042;-73
2023/03/16 00:44:56;;;;;;;5.97;2.50;;;6.00;99.90;;;;;;5020605;28;20407;-72
2023/03/16 00:47:22;;;;;;;3.37;1.63;;;6.00;99.90;;;;;;5006196;28;20069;-74
2023/03/16 00:49:48;;;;;;;2.83;1.50;;;6.00;99.90;;;;;;5004536;28;20048;-71
2023/03/16 00:52:13;;;;;;;4.32;1.60;;;6.00;99.90;;;;;;5006627;28;20738;-72
2023/03/16 00:54:44;;;;;;;6.63;1.50;;;6.00;99.90;;;;;;5005872;28;20037;-71
2023/03/16 00:57:12;;;;;;;4.75;1.70;;;6.00;99.90;;;;;;5006299;28;20033;-72
2023/03/16 00:59:38;;;;;;;3.35;1.55;;;6.00;99.90;;;;;;5004364;28;20046;-73
2023/03/16 01:02:06;;;;;;;3.22;2.05;;;6.00;99.90;;;;;;5005285;28;20053;-72
2023/03/16 01:04:34;;;;;;;3.63;1.50;;;5.90;99.90;;;;;;5005763;28;20065;-74
2023/03/16 01:07:01;;;;;;;5.55;2.17;;;6.00;99.90;;;;;;5004300;28;20073;-70
2023/03/16 01:09:27;;;;;;;4.82;2.05;;;6.00;99.90;;;;;;5004984;28;20041;-71
2023/03/16 01:11:53;;;;;;;3.75;1.67;;;6.00;99.90;;;;;;5004798;28;20038;-72
2023/03/16 01:14:20;;;;;;;3.92;1.95;;;6.00;99.90;;;;;;5006236;28;20119;-71
2023/03/16 01:16:46;;;;;;;7.65;2.63;;;5.90;99.90;;;;;;4997161;28;20053;-71
2023/03/16 01:19:12;;;;;;;3.53;2.05;;;5.90;99.90;;;;;;5006649;28;20034;-70
2023/03/16 01:21:41;;;;;;;4.65;2.28;;;6.00;99.90;;;;;;5013367;28;20080;-70
2023/03/16 01:24:07;;;;;;;4.72;1.90;;;6.00;99.90;;;;;;5005739;28;20109;-71
2023/03/16 01:26:33;;;;;;;3.88;2.38;;;6.00;99.90;;;;;;5011184;28;20116;-72
2023/03/16 01:28:58;;;;;;;3.03;1.90;;;6.00;99.90;;;;;;5005350;28;20124;-71
2023/03/16 01:31:24;;;;;;;5.20;2.42;;;5.90;99.90;;;;;;5005744;28;20126;-73
2023/03/16 01:33:51;;;;;;;4.03;1.95;;;5.90;99.90;;;;;;5003340;28;20034;-72
2023/03/16 01:36:18;;;;;;;7.72;2.72;;;5.90;99.90;;;;;;5006003;28;20516;-72
2023/03/16 01:38:44;;;;;;;5.18;2.35;;;5.90;99.90;;;;;;5003650;28;20037;-71
2023/03/16 01:41:10;;;;;;;6.30;1.95;;;5.90;99.90;;;;;;5005001;28;20065;-70
2023/03/16 01:43:37;;;;;;;5.28;2.05;;;5.90;99.90;;;;;;5002853;28;20113;-70
2023/03/16 01:46:05;;;;;;;3.47;1.90;;;5.90;99.90;;;;;;5003503;28;20040;-74
2023/03/16 01:48:59;;;;;;;3.85;2.05;;;6.00;99.90;;;;;;5008627;28;20493;-71
2023/03/16 01:51:30;;;;;;;5.10;2.22;;;6.00;99.90;;;;;;5002877;28;20073;-71
2023/03/16 01:54:01;;;;;;;6.18;2.17;;;6.00;99.90;;;;;;5003130;28;20037;-71
2023/03/16 01:56:33;;;;;;;7.20;1.77;;;6.00;99.90;;;;;;5006013;28;20486;-71
2023/03/16 01:59:04;;;;;;;5.15;2.03;;;6.00;99.90;;;;;;5003717;28;20114;-71
2023/03/16 02:01:30;;;;;;;5.32;1.88;;;6.00;99.90;;;;;;4999894;28;20397;-73
2023/03/16 02:04:05;;;;;;;3.53;1.70;;;6.00;99.90;;;;;;5011414;28;20116;-71
2023/03/16 02:06:35;;;;;;;7.30;2.00;;;6.00;99.90;;;;;;5011945;28;20042;-71
2023/03/16 02:09:05;;;;;;;8.68;2.15;;;6.00;99.90;;;;;;5003697;28;20060;-70
2023/03/16 02:11:31;;;;;;;3.50;1.60;;;6.00;99.90;;;;;;5025198;28;20038;-71
2023/03/16 02:14:04;;;;;;;3.95;2.05;;;6.00;99.90;;;;;;5002982;28;20099;-71
2023/03/16 02:16:29;;;;;;;6.35;2.35;;;6.00;99.90;;;;;;4996837;28;20751;-73
2023/03/16 02:18:55;;;;;;;5.30;2.10;;;6.00;99.90;;;;;;5003714;28;20045;-72
2023/03/16 02:21:20;;;;;;;5.55;2.28;;;6.00;99.90;;;;;;5004677;28;20112;-72
2023/03/16 02:23:51;;;;;;;3.78;1.70;;;6.00;99.90;;;;;;4999002;28;20034;-71
2023/03/16 02:26:21;;;;;;;5.05;1.95;;;6.00;99.90;;;;;;5011605;28;20053;-75
2023/03/16 02:28:50;;;;;;;;;;;6.00;99.90;;;;;;4999438;28;20064;-70
2023/03/16 02:31:16;;;;;;;4.13;1.90;;;6.00;99.90;;;;;;5005510;28;19988;-71
2023/03/16 02:33:43;;;;;;;6.35;2.58;;;6.00;99.90;;;;;;5002145;28;20478;-71
2023/03/16 02:36:09;;;;;;;6.80;2.20;;;6.00;99.90;;;;;;5012559;28;20029;-72
2023/03/16 02:38:35;;;;;;;5.05;2.10;;;6.00;99.90;;;;;;5004949;28;20030;-70
2023/03/16 02:41:13;;;;;;;3.45;1.63;;;6.00;99.90;;;;;;5004585;28;20557;-73
2023/03/16 02:43:45;;;;;;;14.60;2.88;;;5.90;99.90;;;;;;5003425;28;20133;-72
2023/03/16 02:46:12;;;;;;;15.88;2.63;;;5.90;99.90;;;;;;5004829;28;20782;-72
2023/03/16 02:48:52;;;;;;;4.80;1.98;;;6.00;99.90;;;;;;5001128;28;20030;-74
2023/03/16 02:51:20;;;;;;;9.30;2.25;;;6.00;99.90;;;;;;5003575;28;20074;-70
2023/03/16 02:53:46;;;;;;;5.13;1.95;;;6.00;99.90;;;;;;5000526;28;20038;-75
2023/03/16 02:56:11;;;;;;;5.60;2.33;;;5.90;99.90;;;;;;5007378;28;20080;-71
2023/03/16 02:58:37;;;;;;;4.25;1.98;;;5.90;99.90;;;;;;5008164;28;20044;-69
2023/03/16 03:01:03;;;;;;;3.40;1.70;;;5.90;99.90;;;;;;5007984;28;20668;-72
2023/03/16 03:03:28;;;;;;;4.93;1.70;;;6.00;99.90;;;;;;5008070;28;20048;-74
2023/03/16 03:05:54;;;;;;;5.13;2.00;;;6.00;99.90;;;;;;5007957;28;20937;-75
2023/03/16 03:08:21;;;;;;;4.60;2.25;;;6.00;99.90;;;;;;5008770;28;20053;-71
2023/03/16 03:10:48;;;;;;;7.88;3.17;;;6.00;99.90;;;;;;5006677;28;20038;-72
2023/03/16 03:13:13;;;;;;;6.40;1.98;;;6.00;99.90;;;;;;5008621;28;20426;-73
2023/03/16 03:15:39;;;;;;;7.20;2.08;;;6.00;99.90;;;;;;5005537;28;20053;-71
2023/03/16 03:18:05;;;;;;;5.85;2.47;;;6.00;99.90;;;;;;5007837;28;20119;-71
2023/03/16 03:20:31;;;;;;;5.53;1.98;;;5.90;99.90;;;;;;5007498;28;20060;-69
2023/03/16 03:22:57;;;;;;;9.60;2.20;;;5.80;99.90;;;;;;5007767;28;20816;-69
2023/03/16 03:25:23;;;;;;;4.93;2.20;;;5.80;99.90;;;;;;5008180;28;20045;-74
2023/03/16 03:27:50;;;;;;;4.60;1.80;;;5.70;99.90;;;;;;5015009;28;20026;-69
2023/03/16 03:30:18;;;;;;;7.35;2.00;;;5.70;99.90;;;;;;5014885;28;20026;-70
2023/03/16 03:32:44;;;;;;;5.68;2.58;;;5.70;99.90;;;;;;5007495;28;20096;-74
2023/03/16 03:35:14;;;;;;;8.40;2.30;;;5.70;99.90;;;;;;5005792;28;20037;-74
2023/03/16 03:37:41;;;;;;;4.13;2.17;;;5.70;99.90;;;;;;5007554;28;20049;-72
2023/03/16 03:40:09;;;;;;;7.53;2.58;;;5.70;99.90;;;;;;5007156;28;20042;-71
2023/03/16 03:42:34;;;;;;;5.90;2.47;;;5.60;99.90;;;;;;5004508;28;20467;-73
2023/03/16 03:45:00;;;;;;;3.65;1.63;;;5.60;99.90;;;;;;5004319;28;20137;-70
2023/03/16 03:47:26;;;;;;;4.82;2.10;;;5.60;99.90;;;;;;5006938;28;20037;-69
2023/03/16 03:49:51;;;;;;;8.43;2.20;;;5.60;99.90;;;;;;5006377;28;20390;-71
2023/03/16 03:52:17;;;;;;;5.85;2.40;;;5.60;99.90;;;;;;5007790;28;20140;-71
2023/03/16 03:54:42;;;;;;;5.75;2.00;;;5.60;99.90;;;;;;5006782;28;20037;-74
2023/03/16 03:57:08;;;;;;;9.23;2.53;;;5.60;99.90;;;;;;5008904;28;20532;-70
2023/03/16 03:59:39;;;;;;;7.38;2.17;;;5.60;99.90;;;;;;5003743;28;20038;-70
2023/03/16 04:02:12;;;;;;;6.43;2.05;;;5.50;99.90;;;;;;5004684;28;20477;-70
2023/03/16 04:04:38;;;;;;;8.20;2.33;;;5.50;99.90;;;;;;5003352;28;20053;-69
2023/03/16 04:07:04;;;;;;;8.88;2.30;;;5.60;99.90;;;;;;5007011;28;20034;-70
2023/03/16 04:09:32;;;;;;;5.57;2.08;;;5.50;99.90;;;;;;5006956;28;20654;-70
2023/03/16 04:12:02;;;;;;;4.68;2.30;;;5.50;99.90;;;;;;5013727;28;20048;-71
2023/03/16 04:14:28;;;;;;;5.07;2.03;;;5.50;99.90;;;;;;5006947;28;20034;-69
2023/03/16 04:16:55;;;;;;;5.82;2.10;;;5.50;99.90;;;;;;5003786;28;20034;-69
2023/03/16 04:19:22;;;;;;;7.18;2.15;;;5.50;99.90;;;;;;5005453;28;20065;-73
2023/03/16 04:21:48;;;;;;;6.53;2.47;;;5.50;99.90;;;;;;5004593;28;20034;-72
2023/03/16 04:24:13;;;;;;;11.02;2.72;;;5.50;99.90;;;;;;5006986;28;20022;-71
2023/03/16 04:26:43;;;;;;;4.68;2.17;;;5.50;99.90;;;;;;5006536;28;20108;-74
2023/03/16 04:29:10;;;;;;;7.25;2.08;;;5.50;99.90;;;;;;5007041;28;20050;-72
2023/03/16 04:31:36;;;;;;;6.93;2.08;;;5.50;99.90;;;;;;5004668;28;20053;-71
2023/03/16 04:34:01;;;;;;;3.00;1.75;;;5.50;99.90;;;;;;5006141;28;20033;-72
2023/03/16 04:36:27;;;;;;;5.25;2.15;;;5.50;99.90;;;;;;5006602;28;20036;-71
2023/03/16 04:38:53;;;;;;;3.60;1.60;;;5.60;99.90;;;;;;5005964;28;20689;-71
2023/03/16 04:41:18;;;;;;;4.22;1.83;;;5.70;99.90;;;;;;5006641;28;20030;-70
2023/03/16 04:43:44;;;;;;;6.82;1.55;;;5.70;99.90;;;;;;5006519;28;20069;-71
2023/03/16 04:46:10;;;;;;;5.53;2.25;;;5.60;99.90;;;;;;5019680;28;20465;-74
2023/03/16 04:48:36;;;;;;;6.63;2.35;;;5.70;99.90;;;;;;5004802;28;20030;-71
2023/03/16 04:51:05;;;;;;;11.05;2.17;;;5.70;99.90;;;;;;5006024;28;20041;-70
2023/03/16 04:53:30;;;;;;;5.65;1.92;;;5.70;99.90;;;;;;5006265;28;20431;-72
2023/03/16 04:55:57;;;;;;;5.65;1.60;;;5.70;99.90;;;;;;5005520;28;20112;-70
2023/03/16 04:58:23;;;;;;;6.57;2.47;;;5.80;99.90;;;;;;5006601;28;20406;-76
2023/03/16 05:00:51;;;;;;;3.42;1.60;;;5.80;99.90;;;;;;5003192;28;20049;-72
2023/03/16 05:03:17;;;;;;;4.07;1.83;;;5.80;99.90;;;;;;5001500;28;20498;-71
2023/03/16 05:05:45;;;;;;;5.53;1.70;;;5.70;99.90;;;;;;5005455;28;20034;-73
2023/03/16 05:08:11;;;;;;;4.43;1.55;;;5.70;99.90;;;;;;5004453;28;20056;-71
2023/03/16 05:10:36;;;;;;;3.65;2.00;;;5.60;99.90;;;;;;5001360;28;20064;-70
2023/03/16 05:13:02;;;;;;;3.85;2.08;;;5.60;99.90;;;;;;5005539;28;20026;-70
2023/03/16 05:15:27;;;;;;;2.65;1.60;;;5.60;99.90;;;;;;5004126;28;20038;-72
2023/03/16 05:17:54;;;;;;;4.82;1.92;;;5.60;99.90;;;;;;5005539;28;20045;-71
2023/03/16 05:20:21;;;;;;;10.00;2.53;;;5.60;99.90;;;;;;5005916;28;20038;-70
2023/03/16 05:22:47;;;;;;;4.50;1.95;;;5.60;99.90;;;;;;5005619;28;20528;-74
2023/03/16 05:25:14;;;;;;;4.47;1.95;;;5.50;99.90;;;;;;5005923;28;20034;-72
2023/03/16 05:27:41;;;;;;;7.40;2.40;;;5.50;99.90;;;;;;5005810;28;20571;-70
2023/03/16 05:30:09;;;;;;;5.90;2.17;;;5.50;99.90;;;;;;5004868;28;20107;-70
2023/03/16 05:32:35;;;;;;;7.05;1.90;;;5.50;99.90;;;;;;5006898;28;20124;-71
2023/03/16 05:35:03;;;;;;;5.93;2.00;;;5.50;99.90;;;;;;5004462;28;20128;-72
2023/03/16 05:37:29;;;;;;;5.88;1.77;;;5.50;99.90;;;;;;5001706;28;20049;-70
2023/03/16 05:39:57;;;;;;;5.78;1.98;;;5.50;99.90;;;;;;4999497;28;20096;-69
2023/03/16 05:42:23;;;;;;;4.45;1.80;;;5.50;99.90;;;;;;4998645;28;20077;-75
2023/03/16 05:44:48;;;;;;;8.88;1.88;;;5.50;99.90;;;;;;4998670;28;20034;-70
2023/03/16 05:47:14;;;;;;;8.95;1.80;;;5.50;99.90;;;;;;5001145;28;20433;-70
2023/03/16 05:49:40;;;;;;;8.35;2.20;;;5.50;99.90;;;;;;4995939;28;20091;-70
2023/03/16 05:52:05;;;;;;;6.70;1.85;;;5.50;99.90;;;;;;5003076;28;20108;-74
2023/03/16 05:54:31;;;;;;;12.00;3.03;;;5.40;99.90;;;;;;5000369;28;20103;-70
2023/03/16 05:56:56;;;;;;;4.78;2.08;;;5.40;99.90;;;;;;5007132;28;20029;-70
2023/03/16 05:59:22;;;;;;;4.30;2.28;;;5.50;99.90;;;;;;5006529;28;20042;-69
2023/03/16 06:01:49;;;;;;;7.60;1.60;;;5.50;99.90;;;;;;5001266;28;20034;-70
2023/03/16 06:04:14;;;;;;;6.30;2.50;;;5.50;99.90;;;;;;4999329;28;20034;-70
2023/03/16 06:06:40;;;;;;;5.05;1.83;;;5.50;99.90;;;;;;5003250;28;20763;-71
2023/03/16 06:09:06;;;;;;;5.07;1.80;;;5.50;99.90;;;;;;5000652;28;20109;-74
2023/03/16 06:11:32;;;;;;;6.68;1.88;;;5.60;99.90;;;;;;5002075;28;20034;-69
2023/03/16 06:13:59;;;;;;;10.38;2.28;;;5.60;99.90;;;;;;5001263;28;20037;-71
2023/03/16 06:16:25;;;;;;;7.28;1.98;;;5.60;99.90;;;;;;5001273;28;20029;-72
2023/03/16 06:18:50;;;;;;;5.22;2.03;;;5.60;99.90;;;;;;5000448;28;20745;-70
2023/03/16 06:21:16;;;;;;;5.13;1.70;;;5.60;99.90;;;;;;5002137;28;20101;-70
2023/03/16 06:23:42;;;;;;;4.50;1.48;;;5.70;99.90;;;;;;4999991;28;20038;-71
2023/03/16 06:26:07;;;;;;;4.45;1.73;;;5.70;99.90;;;;;;4999906;28;20034;-74
2023/03/16 06:28:33;;;;;;;4.30;1.40;;;5.60;99.90;;;;;;5001387;28;20234;-72
2023/03/16 06:30:58;;;;;;;4.22;1.65;;;5.70;99.90;;;;;;4998886;28;20050;-71
2023/03/16 06:33:24;;;;;;;6.45;1.83;;;5.70;99.90;;;;;;5002310;28;20088;-76
2023/03/16 06:35:50;;;;;;;6.55;1.30;;;5.70;99.90;;;;;;5000975;28;20502;-70
2023/03/16 06:38:17;;;;;;;3.90;1.75;;;5.70;99.90;;;;;;5001279;28;20033;-73
2023/03/16 06:40:42;;;;;;;5.35;1.55;;;5.70;99.90;;;;;;5000382;28;20907;-70
2023/03/16 06:43:08;;;;;;;2.25;1.50;;;5.70;99.90;;;;;;5001637;28;20049;-73
2023/03/16 06:45:34;;;;;;;3.63;1.60;;;5.70;99.90;;;;;;5001354;28;20042;-72
2023/03/16 06:48:00;;;;;;;5.30;1.35;;;5.70;99.90;;;;;;5001140;28;20604;-74
2023/03/16 06:50:26;;;;;;;6.13;2.45;;;5.70;99.90;;;;;;5001719;28;20034;-71
2023/03/16 06:52:52;;;;;;;3.65;1.30;;;5.70;99.90;;;;;;4998434;28;20080;-71
2023/03/16 06:55:17;;;;;;;5.50;2.28;;;5.70;99.90;;;;;;5000550;28;20518;-72
2023/03/16 06:57:43;;;;;;;4.03;1.23;;;5.70;99.90;;;;;;5002779;28;20057;-73
2023/03/16 07:00:12;;;;;;;2.42;1.20;;;5.70;99.90;;;;;;5003794;28;20131;-74
2023/03/16 07:02:39;;;;;;;4.13;1.45;;;5.70;99.90;;;;;;5001293;28;20053;-72
2023/03/16 07:05:06;;;;;;;4.57;1.27;;;5.70;99.90;;;;;;5001108;28;20061;-72
2023/03/16 07:07:32;;;;;;;5.65;1.90;;;5.70;99.90;;;;;;5001758;28;20038;-72
2023/03/16 07:09:58;;;;;;;5.53;1.38;;;5.70;99.90;;;;;;5001262;28;20034;-71
2023/03/16 07:12:23;;;;;;;4.90;1.88;;;5.70;99.90;;;;;;5010498;28;20506;-72
2023/03/16 07:14:50;;;;;;;4.68;1.38;;;5.70;99.90;;;;;;5000164;28;20122;-72
2023/03/16 07:17:18;;;;;;;6.68;1.65;;;5.70;99.90;;;;;;5002172;28;20401;-72
2023/03/16 07:19:44;;;;;;;3.90;1.50;;;5.70;99.90;;;;;;5000766;28;20057;-72
2023/03/16 07:22:09;;;;;;;7.25;2.25;;;5.60;99.90;;;;;;5001536;28;20034;-71
2023/03/16 07:24:35;;;;;;;4.20;1.73;;;5.50;99.90;;;;;;5001725;28;20474;-71
2023/03/16 07:27:01;;;;;;;3.60;1.52;;;5.60;99.90;;;;;;5001725;28;20029;-70
2023/03/16 07:29:27;;;;;;;3.28;1.50;;;5.60;99.90;;;;;;5004581;28;20068;-73
2023/03/16 07:31:53;;;;;;;6.82;2.35;;;5.70;99.90;;;;;;5004765;28;20029;-71
2023/03/16 07:34:20;;;;;;;3.00;1.40;;;5.60;99.90;;;;;;5001398;28;20907;-74
2023/03/16 07:36:47;;;;;;;3.85;1.77;;;5.70;99.90;;;;;;5003411;28;20061;-71
2023/03/16 07:39:16;;;;;;;9.88;2.67;;;5.70;99.90;;;;;;5004605;28;20121;-73
2023/03/16 07:41:42;;;;;;;3.63;1.30;;;5.70;99.90;;;;;;5003653;28;20038;-73
2023/03/16 07:44:07;;;;;;;4.07;1.65;;;5.70;99.90;;;;;;5005818;28;20030;-73
2023/03/16 07:46:33;;;;;;;5.03;1.77;;;5.80;99.90;;;;;;5005629;28;20042;-70
2023/03/16 07:48:58;;;;;;;5.07;1.50;;;5.80;99.90;;;;;;5004034;28;20084;-71
2023/03/16 07:51:24;;;;;;;3.90;1.38;;;5.70;99.90;;;;;;5002833;28;20072;-77
2023/03/16 07:53:50;;;;;;;11.57;1.52;;;5.80;99.90;;;;;;5003488;28;20034;-72
2023/03/16 07:56:15;;;;;;;6.35;1.70;;;5.90;99.90;;;;;;5002960;28;20022;-71
2023/03/16 07:58:41;;;;;;;4.38;1.10;;;5.90;99.90;;;;;;5006428;28;20033;-70
2023/03/16 08:01:08;;;;;;;5.93;1.90;;;6.00;99.90;;;;;;5005836;28;20525;-70
2023/03/16 08:03:33;;;;;;;7.25;1.25;;;6.10;99.90;;;;;;5004394;28;20042;-71
2023/03/16 08:05:59;;;;;;;2.92;1.48;;;6.20;99.90;;;;;;5006176;28;20030;-70
2023/03/16 08:08:25;;;;;;;1.92;1.20;;;6.20;99.90;;;;;;5003691;28;20034;-73
2023/03/16 08:10:51;;;;;;;4.93;1.10;;;6.30;99.90;;;;;;5002709;28;20041;-73
2023/03/16 08:13:18;;;;;;;2.72;1.35;;;6.40;99.90;;;;;;5006566;28;20041;-74
2023/03/16 08:15:57;;;;;;;4.25;1.60;;;6.50;99.90;;;;;;5002947;28;20038;-71
2023/03/16 08:18:23;;;;;;;3.58;0.98;;;6.60;99.90;;;;;;5007754;28;20140;-72
2023/03/16 08:20:49;;;;;;;7.90;1.52;;;6.60;99.90;;;;;;5001628;28;20553;-73
2023/03/16 08:23:15;;;;;;;7.13;1.33;;;6.70;99.90;;;;;;5004727;28;20124;-70
2023/03/16 08:25:40;;;;;;;6.28;1.17;;;6.70;99.90;;;;;;5007259;28;20081;-70
2023/03/16 08:28:07;;;;;;;3.95;1.08;;;6.80;99.90;;;;;;5006316;28;20136;-70
2023/03/16 08:30:34;;;;;;;1.48;0.63;;;6.80;99.90;;;;;;5005696;28;20134;-70
2023/03/16 08:33:01;;;;;;;2.10;0.82;;;6.90;99.90;;;;;;5003793;28;20562;-71
2023/03/16 08:35:27;;;;;;;3.67;0.73;;;7.00;99.90;;;;;;5000732;28;20038;-71
2023/03/16 08:37:54;;;;;;;9.52;1.70;;;7.10;99.90;;;;;;5006312;28;20025;-75
2023/03/16 08:40:21;;;;;;;3.35;1.20;;;7.10;99.90;;;;;;5005668;28;20042;-72
2023/03/16 08:42:49;;;;;;;5.13;1.30;;;7.10;99.90;;;;;;5005597;28;20029;-73
2023/03/16 08:45:16;;;;;;;3.53;1.00;;;7.20;99.90;;;;;;5003223;28;20061;-74
2023/03/16 08:47:42;;;;;;;2.97;1.00;;;7.20;99.90;;;;;;5002162;28;20041;-70
2023/03/16 08:50:11;;;;;;;3.92;1.25;;;7.30;99.90;;;;;;5001380;28;20482;-72
2023/03/16 08:52:37;;;;;;;4.22;0.95;;;7.30;99.90;;;;;;5004998;28;20044;-73
2023/03/16 08:55:04;;;;;;;1.85;0.68;;;7.30;99.90;;;;;;5004878;28;20037;-72
2023/03/16 08:57:33;;;;;;;4.18;1.13;;;7.30;99.90;;;;;;5002984;28;20034;-70
2023/03/16 08:59:58;;;;;;;4.07;0.80;;;7.40;99.90;;;;;;5004312;28;20052;-70
2023/03/16 09:02:24;;;;;;;2.28;0.80;;;7.50;99.90;;;;;;5002247;28;20034;-72
2023/03/16 09:04:51;;;;;;;2.63;0.80;;;7.50;99.90;;;;;;5003573;28;20085;-74
2023/03/16 09:07:18;;;;;;;3.17;0.85;;;7.50;99.90;;;;;;5004168;28;20088;-72
2023/03/16 09:09:45;;;;;;;3.28;0.90;;;7.50;99.90;;;;;;5003239;28;20046;-73
2023/03/16 09:12:16;;;;;;;1.27;0.63;;;7.50;99.90;;;;;;5002800;28;20048;-70
2023/03/16 09:14:42;;;;;;;1.30;0.70;;;7.50;99.90;;;;;;5000361;28;20038;-73
2023/03/16 09:17:07;;;;;;;2.10;0.90;;;7.60;99.90;;;;;;4998355;28;20524;-70
2023/03/16 09:19:34;;;;;;;4.68;0.80;;;7.60;99.90;;;;;;5003158;28;20061;-74
2023/03/16 09:21:59;;;;;;;3.03;0.95;;;7.70;99.90;;;;;;5015112;28;20030;-73
2023/03/16 09:24:25;;;;;;;2.90;0.90;;;7.80;99.90;;;;;;4999473;28;20049;-73
2023/03/16 09:26:51;;;;;;;2.53;1.15;;;7.90;99.90;;;;;;4999991;28;20052;-71
2023/03/16 09:29:17;;;;;;;2.97;1.63;;;8.00;99.90;;;;;;5000299;28;20042;-72
2023/03/16 09:31:44;;;;;;;4.25;0.90;;;8.10;99.90;;;;;;4999113;28;20441;-73
2023/03/16 09:34:10;;;;;;;2.05;0.70;;;8.20;99.90;;;;;;5001754;28;20030;-74
2023/03/16 09:36:36;;;;;;;6.35;1.02;;;8.30;99.90;;;;;;5000930;28;20851;-71
2023/03/16 09:39:02;;;;;;;1.95;0.82;;;8.40;99.90;;;;;;5002049;28;20031;-71
2023/03/16 09:42:03;;;;;;;1.35;0.55;;;8.50;99.90;;;;;;5001685;28;20126;-71
2023/03/16 09:45:08;;;;;;;3.35;0.90;;;8.60;99.90;;;;;;5017232;28;20037;-72
2023/03/16 09:47:35;;;;;;;6.38;2.08;;;8.70;99.90;;;;;;4998780;28;20598;-71
2023/03/16 09:50:04;;;;;;;2.08;0.77;;;8.80;99.90;;;;;;5001694;28;20145;-71
2023/03/16 09:52:38;;;;;;;7.20;1.02;;;8.90;99.90;;;;;;5001992;28;20061;-74
2023/03/16 09:55:29;;;;;;;2.38;1.10;;;9.00;99.90;;;;;;5002245;28;20034;-70
2023/03/16 09:57:57;;;;;;;4.13;0.70;;;9.10;99.90;;;;;;5000537;28;20033;-71
2023/03/16 10:00:44;;;;;;;2.10;0.82;;;9.20;99.90;;;;;;4998197;28;20037;-74
2023/03/16 10:03:23;;;;;;;6.00;1.00;;;9.50;99.90;;;;;;4998509;28;20048;-73
2023/03/16 10:05:58;;;;;;;5.32;0.85;;;9.70;99.90;;;;;;4999856;28;20034;-72
2023/03/16 10:08:30;;;;;;;3.28;0.88;;;9.80;99.90;;;;;;5000820;28;20038;-76
2023/03/16 10:11:14;;;;;;;4.93;0.60;;;9.80;99.90;;;;;;5007338;28;20030;-71
2023/03/16 10:13:56;;;;;;;4.85;1.10;;;9.90;99.90;;;;;;5002100;28;20045;-71
2023/03/16 10:16:46;;;;;;;4.38;0.85;;;10.00;99.90;;;;;;5002489;28;20319;-70
2023/03/16 10:19:32;;;;;;;4.07;1.75;;;10.10;99.90;;;;;;5001385;28;20069;-71
2023/03/16 10:22:01;;;;;;;3.05;0.85;;;10.20;99.90;;;;;;5000985;28;20033;-73
2023/03/16 10:24:40;;;;;;;3.58;0.77;;;10.10;99.90;;;;;;5002982;28;20034;-72
2023/03/16 10:27:13;;;;;;;3.88;1.25;;;10.20;99.90;;;;;;5002492;28;20152;-69
2023/03/16 10:29:40;;;;;;;2.97;0.75;;;10.30;99.90;;;;;;5001862;28;20064;-73
2023/03/16 10:32:16;;;;;;;4.25;0.70;;;10.50;99.90;;;;;;4999098;28;20029;-72
2023/03/16 10:35:10;;;;;;;5.25;1.77;;;10.50;99.90;;;;;;5001838;28;20061;-71
2023/03/16 10:37:37;;;;;;;3.60;0.70;;;10.60;99.90;;;;;;5011775;28;20041;-70
2023/03/16 10:40:08;;;;;;;1.70;0.60;;;10.70;99.90;;;;;;5003195;28;20046;-73
2023/03/16 10:42:35;;;;;;;3.55;0.63;;;10.70;99.90;;;;;;4999772;28;20153;-73
2023/03/16 10:45:02;;;;;;;4.25;0.60;;;10.80;99.90;;;;;;5000035;28;20038;-71
2023/03/16 10:47:31;;;;;;;4.97;0.85;;;10.80;99.90;;;;;;4999275;28;20123;-75
2023/03/16 10:49:57;;;;;;;3.70;0.70;;;10.80;99.90;;;;;;4994893;28;20352;-74
2023/03/16 10:52:48;;;;;;;3.47;0.63;;;10.80;99.90;;;;;;5005318;28;20505;-76
2023/03/16 10:55:25;;;;;;;3.70;1.08;;;11.00;99.90;;;;;;5000132;28;20602;-69
2023/03/16 10:57:53;;;;;;;6.03;1.52;;;11.00;99.90;;;;;;5000036;28;20417;-69
2023/03/16 11:00:33;;;;;;;2.42;0.50;;;11.00;99.90;;;;;;5000615;28;20034;-73
2023/03/16 11:03:00;;;;;;;1.85;0.60;;;11.00;99.90;;;;;;4999433;28;20049;-74
2023/03/16 11:05:32;;;;;;;2.47;0.47;;;11.10;99.90;;;;;;5003199;28;20046;-75
2023/03/16 11:07:59;;;;;;;1.55;0.52;;;11.10;99.90;;;;;;4998728;28;20045;-70
2023/03/16 11:10:34;;;;;;;4.07;1.17;;;11.20;99.90;;;;;;5000851;28;20530;-71
2023/03/16 11:13:13;;;;;;;4.28;0.80;;;11.20;99.90;;;;;;5002999;28;20104;-73
2023/03/16 11:15:52;;;;;;;2.33;0.50;;;11.20;99.90;;;;;;5005423;28;20034;-72
2023/03/16 11:18:32;;;;;;;2.33;1.15;;;11.30;99.90;;;;;;5007966;28;20124;-73
2023/03/16 11:21:13;;;;;;;3.42;0.50;;;11.40;99.90;;;;;;5005690;28;20037;-71
2023/03/16 11:23:48;;;;;;;6.57;0.60;;;11.50;99.90;;;;;;5006200;28;20034;-71
2023/03/16 11:26:35;;;;;;;5.03;0.47;;;11.50;99.90;;;;;;5001640;28;20179;-71
2023/03/16 11:29:27;;;;;;;1.75;0.90;;;11.70;99.90;;;;;;5000343;28;20053;-72
2023/03/16 11:31:59;;;;;;;2.13;0.50;;;11.70;99.90;;;;;;5005212;28;20397;-71
2023/03/16 11:34:31;;;;;;;3.42;0.45;;;11.80;99.90;;;;;;4998941;28;20045;-75
2023/03/16 11:37:21;;;;;;;1.60;0.30;;;11.80;99.90;;;;;;5001136;28;20029;-71
2023/03/16 11:39:49;;;;;;;4.53;0.38;;;11.90;99.90;;;;;;4999564;28;20663;-73
2023/03/16 11:42:23;;;;;;;1.85;0.35;;;12.00;99.90;;;;;;4999975;28;20083;-73
2023/03/16 11:45:12;;;;;;;1.27;0.50;;;12.10;99.90;;;;;;5001235;28;20045;-71
2023/03/16 11:47:43;;;;;;;3.58;0.70;;;12.10;99.90;;;;;;5000988;28;20038;-72
2023/03/16 11:50:43;;;;;;;3.33;0.63;;;12.10;99.90;;;;;;5000972;28;20037;-72
2023/03/16 11:53:35;;;;;;;1.33;0.40;;;12.10;99.90;;;;;;4999906;28;20050;-72
2023/03/16 11:56:06;;;;;;;2.28;0.32;;;12.10;99.90;;;;;;4998838;28;20304;-71
2023/03/16 11:58:47;;;;;;;1.33;0.60;;;12.20;99.90;;;;;;5004516;28;20801;-71
2023/03/16 12:01:26;;;;;;;;;;;12.30;99.90;;;;;;5017251;28;20053;-72
2023/03/16 12:04:38;;;;;;;1.48;1.15;;;12.40;99.90;;;;;;5001448;28;19920;-70
2023/03/16 12:07:29;;;;;;;6.38;1.23;;;12.50;99.60;;;;;;4958037;28;20049;-73
2023/03/16 12:10:22;;;;;;;2.33;0.73;;;12.50;99.90;;;;;;5000087;28;20045;-72
2023/03/16 12:13:31;;;;;;;3.17;0.40;;;12.50;99.90;;;;;;5002802;28;20034;-73
2023/03/16 12:16:04;;;;;;;4.07;1.05;;;12.70;99.50;;;;;;4994021;28;20037;-73
2023/03/16 12:18:47;;;;;;;1.73;0.52;;;12.80;99.90;;;;;;5005182;28;20943;-72
2023/03/16 12:21:45;;;;;;;2.45;0.40;;;12.80;99.80;;;;;;5004974;28;20048;-72
2023/03/16 12:24:17;;;;;;;1.85;0.75;;;12.70;99.10;;;;;;4982671;28;20041;-71
2023/03/16 12:26:44;;;;;;;4.00;0.50;;;12.70;98.80;;;;;;5003079;28;20033;-76
2023/03/16 12:29:48;;;;;;;1.98;0.30;;;12.70;98.60;;;;;;5004500;28;20041;-72
2023/03/16 12:32:35;;;;;;;1.45;0.70;;;12.90;99.40;;;;;;5001864;28;20062;-70
2023/03/16 12:35:35;;;;;;;2.70;0.35;;;12.80;98.20;;;;;;5001424;28;20037;-72
2023/03/16 12:38:38;;;;;;;1.05;0.25;;;12.90;98.70;;;;;;5015105;28;20120;-73
2023/03/16 12:41:13;;;;;;;1.77;0.35;;;13.00;99.00;;;;;;5002391;28;20065;-70
2023/03/16 12:44:14;;;;;;;2.47;0.80;;;13.10;98.20;;;;;;5015926;28;20438;-70
2023/03/16 12:46:39;;;;;;;1.83;0.30;;;13.20;98.00;;;;;;4986989;28;20059;-71
2023/03/16 12:49:07;;;;;;;1.80;0.30;;;13.20;97.90;;;;;;4998948;28;20041;-70
2023/03/16 12:51:38;;;;;;;0.50;0.40;;;13.20;96.70;;;;;;5003342;28;20052;-69
2023/03/16 12:54:06;;;;;;;1.48;0.38;;;13.20;97.10;;;;;;4999814;28;20437;-71
2023/03/16 12:56:35;;;;;;;1.70;0.25;;;13.20;97.30;;;;;;5002926;28;20888;-70
2023/03/16 12:59:06;;;;;;;1.67;0.22;;;13.20;96.90;;;;;;5007581;28;20475;-70
2023/03/16 13:01:43;;;;;;;3.13;0.40;;;13.10;97.20;;;;;;5001759;28;20120;-72
2023/03/16 13:04:16;;;;;;;1.55;0.82;;;13.20;97.20;;;;;;5002923;28;20111;-70
2023/03/16 13:06:49;;;;;;;5.03;0.47;;;13.20;97.60;;;;;;5002926;28;20565;-73
2023/03/16 13:09:30;;;;;;;5.40;0.50;;;13.30;97.50;;;;;;5018003;28;20541;-73